Time;durP1;ratioP1;P1;durP2;ratioP2;P2;SDS_P1;SDS_P2;PMS_P1;PMS_P2;Temp;Humidity;BMP_temperature;BMP_pressure;BME280_temperature;BME280_humidity;BME280_pressure;Samples;Min_cycle;Max_cycle;Signal;HPM_P1;HPM_P2
2022/03/13 00:02:02;;;;;;;4.07;3.10;;;6.50;31.20;;;;;;5006262;28;33995;-75
2022/03/13 00:04:28;;;;;;;4.25;2.83;;;6.40;31.40;;;;;;4973041;28;34163;-75
2022/03/13 00:06:55;;;;;;;3.80;3.00;;;6.30;31.50;;;;;;4989212;28;36413;-75
2022/03/13 00:09:25;;;;;;;7.10;2.95;;;6.20;31.40;;;;;;4989180;28;34163;-75
2022/03/13 00:11:52;;;;;;;5.88;3.28;;;6.20;31.70;;;;;;4988604;28;34112;-75
2022/03/13 00:14:20;;;;;;;5.32;3.65;;;6.10;31.70;;;;;;4973374;28;34481;-75
2022/03/13 00:16:48;;;;;;;6.22;3.53;;;6.00;31.70;;;;;;5004901;28;34339;-75
2022/03/13 00:19:16;;;;;;;7.40;4.35;;;6.00;31.80;;;;;;4971380;28;34365;-75
2022/03/13 00:21:49;;;;;;;6.70;4.43;;;5.90;31.90;;;;;;4987922;28;34274;-75
2022/03/13 00:24:20;;;;;;;4.97;3.70;;;5.90;32.10;;;;;;4969192;28;34222;-75
2022/03/13 00:26:47;;;;;;;6.38;3.97;;;5.80;31.90;;;;;;4977542;28;36499;-75
2022/03/13 00:29:13;;;;;;;6.00;4.25;;;5.70;32.10;;;;;;5005753;28;34285;-75
2022/03/13 00:31:39;;;;;;;9.15;4.38;;;5.70;32.10;;;;;;5005492;28;34146;-75
2022/03/13 00:34:05;;;;;;;5.70;3.90;;;5.60;32.20;;;;;;4971488;28;34430;-75
2022/03/13 00:36:31;;;;;;;6.75;4.32;;;5.50;32.30;;;;;;4971190;28;36548;-75
2022/03/13 00:38:57;;;;;;;6.72;4.18;;;5.50;32.30;;;;;;4988246;28;34148;-75
2022/03/13 00:41:23;;;;;;;7.00;4.53;;;5.40;32.30;;;;;;4973079;28;34125;-75
2022/03/13 00:43:49;;;;;;;8.52;4.22;;;5.40;32.40;;;;;;4988949;28;34531;-75
2022/03/13 00:46:15;;;;;;;7.05;4.50;;;5.40;32.60;;;;;;4988712;28;35882;-75
2022/03/13 00:48:41;;;;;;;7.30;4.38;;;5.40;32.70;;;;;;4988365;28;34364;-75
2022/03/13 00:51:08;;;;;;;6.80;4.40;;;5.40;32.80;;;;;;4988546;28;34216;-75
2022/03/13 00:53:34;;;;;;;7.35;4.68;;;5.40;32.80;;;;;;4988022;28;34571;-75
2022/03/13 00:56:01;;;;;;;6.53;4.47;;;5.40;32.80;;;;;;4986501;28;35858;-75
2022/03/13 00:58:27;;;;;;;7.60;4.65;;;5.40;32.80;;;;;;4958758;28;34140;-76
2022/03/13 01:00:53;;;;;;;6.10;4.40;;;5.40;32.80;;;;;;4952514;28;34018;-75
2022/03/13 01:03:52;;;;;;;6.70;4.70;;;5.40;32.80;;;;;;4969421;28;34459;-75
2022/03/13 01:06:20;;;;;;;5.32;3.97;;;5.40;34.70;;;;;;4952526;28;35558;-75
2022/03/13 01:08:47;;;;;;;6.57;4.03;;;5.30;32.90;;;;;;4986140;28;34088;-75
2022/03/13 01:11:16;;;;;;;5.88;4.35;;;5.30;32.90;;;;;;4986797;28;34065;-75
2022/03/13 01:13:42;;;;;;;7.95;4.68;;;5.30;32.90;;;;;;4953147;28;34397;-75
2022/03/13 01:16:21;;;;;;;9.02;5.03;;;5.30;32.90;;;;;;4986429;28;34330;-75
2022/03/13 01:18:51;;;;;;;7.43;4.35;;;5.30;34.00;;;;;;4968406;28;34747;-75
2022/03/13 01:21:18;;;;;;;5.90;4.38;;;5.40;33.10;;;;;;4968789;28;34206;-75
2022/03/13 01:24:17;;;;;;;7.72;5.38;;;5.40;33.00;;;;;;4968940;28;34341;-75
2022/03/13 01:26:43;;;;;;;7.72;4.68;;;5.50;35.40;;;;;;4968880;28;35588;-75
2022/03/13 01:29:13;;;;;;;7.45;4.80;;;5.50;33.20;;;;;;4969055;28;34475;-75
2022/03/13 01:31:45;;;;;;;7.75;4.88;;;5.60;33.30;;;;;;4986176;28;34207;-75
2022/03/13 01:34:13;;;;;;;9.30;5.38;;;5.60;33.80;;;;;;4952936;28;34217;-75
2022/03/13 01:36:39;;;;;;;7.55;4.97;;;5.70;33.30;;;;;;4968497;28;36158;-76
2022/03/13 01:39:06;;;;;;;9.13;5.45;;;5.70;33.20;;;;;;4968874;28;34036;-76
2022/03/13 01:41:34;;;;;;;8.27;5.30;;;5.70;33.20;;;;;;4968997;28;34663;-75
2022/03/13 01:44:00;;;;;;;8.38;4.82;;;5.80;33.10;;;;;;4968829;28;34568;-75
2022/03/13 01:46:27;;;;;;;7.45;5.20;;;5.80;33.30;;;;;;4952296;28;35685;-75
2022/03/13 01:48:58;;;;;;;8.13;5.13;;;5.80;33.30;;;;;;4969077;28;34136;-75
2022/03/13 01:51:26;;;;;;;6.90;4.93;;;5.90;33.60;;;;;;4952453;28;34329;-75
2022/03/13 01:53:54;;;;;;;7.47;4.90;;;5.90;33.20;;;;;;4951759;28;34113;-75
2022/03/13 01:56:21;;;;;;;7.65;5.40;;;6.00;33.30;;;;;;4950959;28;36455;-75
2022/03/13 01:58:52;;;;;;;8.82;5.60;;;6.00;33.20;;;;;;4984983;28;34012;-75
2022/03/13 02:01:19;;;;;;;9.13;5.97;;;6.10;33.40;;;;;;4968367;28;34231;-75
2022/03/13 02:03:46;;;;;;;8.73;5.63;;;6.10;33.20;;;;;;4951450;28;34439;-75
2022/03/13 02:06:13;;;;;;;8.65;5.45;;;6.20;33.10;;;;;;4967476;28;36300;-75
2022/03/13 02:08:40;;;;;;;7.82;5.20;;;6.20;33.10;;;;;;4968103;28;34105;-75
2022/03/13 02:11:08;;;;;;;8.15;5.88;;;6.20;33.10;;;;;;4968036;28;34128;-76
2022/03/13 02:13:34;;;;;;;11.52;6.63;;;6.30;33.30;;;;;;4968219;28;34305;-75
2022/03/13 02:16:01;;;;;;;10.85;6.57;;;6.30;33.30;;;;;;4951945;28;35942;-75
2022/03/13 02:18:27;;;;;;;9.68;6.05;;;6.40;33.30;;;;;;4985292;28;33997;-76
2022/03/13 02:20:53;;;;;;;8.38;5.65;;;6.40;33.40;;;;;;4968089;28;34460;-76
2022/03/13 02:23:24;;;;;;;9.45;6.03;;;6.40;33.30;;;;;;4968016;28;34584;-75
2022/03/13 02:25:52;;;;;;;10.38;6.28;;;6.40;33.50;;;;;;4951543;28;35808;-76
2022/03/13 02:28:21;;;;;;;8.88;5.80;;;6.50;33.60;;;;;;4967964;28;34158;-76
2022/03/13 02:30:47;;;;;;;11.27;5.93;;;6.50;33.70;;;;;;4967655;28;34203;-75
2022/03/13 02:33:17;;;;;;;8.85;6.13;;;6.50;33.60;;;;;;4968375;28;34401;-76
2022/03/13 02:35:51;;;;;;;7.25;5.20;;;6.50;33.70;;;;;;4950579;28;35776;-75
2022/03/13 02:38:17;;;;;;;11.27;6.15;;;6.50;34.20;;;;;;4966626;28;34334;-76
2022/03/13 02:40:43;;;;;;;7.78;5.53;;;6.50;33.80;;;;;;4966538;28;34274;-76
2022/03/13 02:43:09;;;;;;;10.43;5.93;;;6.50;33.60;;;;;;4966738;28;34524;-75
2022/03/13 02:45:38;;;;;;;9.88;6.55;;;6.60;33.70;;;;;;4966852;28;35073;-76
2022/03/13 02:48:06;;;;;;;7.35;5.43;;;6.60;33.80;;;;;;4950500;28;34264;-75
2022/03/13 02:50:33;;;;;;;8.48;6.10;;;6.60;33.80;;;;;;4951744;28;34083;-76
2022/03/13 02:52:59;;;;;;;9.07;5.78;;;6.60;33.80;;;;;;4968491;28;34300;-76
2022/03/13 02:55:25;;;;;;;9.20;6.28;;;6.60;34.00;;;;;;4950016;28;35772;-76
2022/03/13 02:57:52;;;;;;;9.77;6.32;;;6.60;34.00;;;;;;4983301;28;34109;-76
2022/03/13 03:00:20;;;;;;;9.85;5.55;;;6.60;34.00;;;;;;4967084;28;34446;-76
2022/03/13 03:02:47;;;;;;;14.38;5.72;;;6.60;34.00;;;;;;4966116;28;34400;-76
2022/03/13 03:05:15;;;;;;;9.00;5.70;;;6.60;34.10;;;;;;4965340;28;35805;-76
2022/03/13 03:07:41;;;;;;;10.13;5.88;;;6.70;34.30;;;;;;4966194;28;34313;-76
2022/03/13 03:10:13;;;;;;;9.32;5.88;;;6.70;34.30;;;;;;4950375;28;34167;-76
2022/03/13 03:12:39;;;;;;;10.05;6.07;;;6.70;34.70;;;;;;4966301;28;34540;-76
2022/03/13 03:15:06;;;;;;;10.27;6.72;;;6.70;34.30;;;;;;4949161;28;35586;-76
2022/03/13 03:17:32;;;;;;;8.68;5.85;;;6.70;34.30;;;;;;4950235;28;34144;-75
2022/03/13 03:19:58;;;;;;;10.10;5.60;;;6.70;34.50;;;;;;4965637;28;34298;-76
2022/03/13 03:22:24;;;;;;;10.98;5.88;;;6.70;34.60;;;;;;4966062;28;34165;-76
2022/03/13 03:24:49;;;;;;;8.75;5.80;;;6.70;34.50;;;;;;4983765;28;34158;-76
2022/03/13 03:27:17;;;;;;;9.43;6.28;;;6.70;34.60;;;;;;4966028;28;34095;-76
2022/03/13 03:29:43;;;;;;;10.75;6.43;;;6.70;34.50;;;;;;4983537;28;34175;-76
2022/03/13 03:32:09;;;;;;;8.68;6.13;;;6.80;34.60;;;;;;4966477;28;34023;-75
2022/03/13 03:34:35;;;;;;;9.10;6.07;;;6.70;34.60;;;;;;4965439;28;35760;-75
2022/03/13 03:37:02;;;;;;;9.35;6.13;;;6.80;34.60;;;;;;4949631;28;34481;-75
2022/03/13 03:39:31;;;;;;;9.50;6.07;;;6.80;34.70;;;;;;4950029;28;34333;-75
2022/03/13 03:41:58;;;;;;;8.57;5.97;;;6.80;34.60;;;;;;4949631;28;34619;-75
2022/03/13 03:44:24;;;;;;;9.90;6.18;;;6.80;34.70;;;;;;4965968;28;34432;-75
2022/03/13 03:46:52;;;;;;;10.18;6.28;;;6.80;34.90;;;;;;4983004;28;34444;-75
2022/03/13 03:49:18;;;;;;;7.70;5.80;;;6.80;35.20;;;;;;4965818;28;34243;-75
2022/03/13 03:51:44;;;;;;;10.63;6.18;;;6.80;35.20;;;;;;4966292;28;34337;-75
2022/03/13 03:54:11;;;;;;;10.20;6.05;;;6.80;35.30;;;;;;4965709;28;35709;-75
2022/03/13 03:56:37;;;;;;;8.85;6.60;;;6.80;35.30;;;;;;4965629;28;34230;-75
2022/03/13 03:59:04;;;;;;;10.43;6.47;;;6.80;35.30;;;;;;4949909;28;34110;-75
2022/03/13 04:01:40;;;;;;;10.57;6.57;;;6.80;35.40;;;;;;4965404;28;34509;-75
2022/03/13 04:04:07;;;;;;;8.18;5.72;;;6.80;36.30;;;;;;4965629;28;35160;-75
2022/03/13 04:06:34;;;;;;;9.70;6.50;;;6.80;35.60;;;;;;4965818;28;34329;-75
2022/03/13 04:09:01;;;;;;;8.07;6.15;;;6.80;35.70;;;;;;4965358;28;34041;-75
2022/03/13 04:11:27;;;;;;;11.32;6.05;;;6.80;35.70;;;;;;4965317;28;34207;-75
2022/03/13 04:13:53;;;;;;;10.40;6.57;;;6.80;35.80;;;;;;4964646;28;35985;-75
2022/03/13 04:16:18;;;;;;;9.02;6.15;;;6.80;35.90;;;;;;4949344;28;34165;-75
2022/03/13 04:18:44;;;;;;;9.88;6.85;;;6.80;36.00;;;;;;4949310;28;34211;-75
2022/03/13 04:21:10;;;;;;;9.45;6.10;;;6.80;36.40;;;;;;4949274;28;34278;-75
2022/03/13 04:23:36;;;;;;;9.63;6.15;;;6.80;36.60;;;;;;4964587;28;35633;-75
2022/03/13 04:26:04;;;;;;;11.75;6.50;;;6.70;36.80;;;;;;4965544;28;34228;-75
2022/03/13 04:28:31;;;;;;;7.13;5.53;;;6.70;36.90;;;;;;4952490;28;34240;-75
2022/03/13 04:30:58;;;;;;;8.27;5.78;;;6.70;36.90;;;;;;4967927;28;34085;-75
2022/03/13 04:33:27;;;;;;;8.80;6.13;;;6.70;36.90;;;;;;4968071;28;36396;-75
2022/03/13 04:35:55;;;;;;;9.45;6.75;;;6.70;37.20;;;;;;4952151;28;34162;-75
2022/03/13 04:38:23;;;;;;;11.50;6.97;;;6.70;37.10;;;;;;4985468;28;34039;-75
2022/03/13 04:40:51;;;;;;;11.43;7.30;;;6.70;37.20;;;;;;4968297;28;34091;-75
2022/03/13 04:43:17;;;;;;;18.38;7.10;;;6.70;37.20;;;;;;4951977;28;35945;-75
2022/03/13 04:45:43;;;;;;;10.80;7.10;;;6.70;37.30;;;;;;4968146;28;34192;-75
2022/03/13 04:48:09;;;;;;;9.15;6.30;;;6.70;37.20;;;;;;4968604;28;34309;-76
2022/03/13 04:50:35;;;;;;;11.25;6.60;;;6.70;37.30;;;;;;4969292;28;34234;-76
2022/03/13 04:53:01;;;;;;;10.93;7.15;;;6.70;37.30;;;;;;4967771;28;34919;-76
2022/03/13 04:55:27;;;;;;;10.57;6.85;;;6.60;37.40;;;;;;4968461;28;34136;-75
2022/03/13 04:57:53;;;;;;;11.75;7.15;;;6.60;37.40;;;;;;4968090;28;34176;-75
2022/03/13 05:00:19;;;;;;;9.60;6.38;;;6.60;37.60;;;;;;4952160;28;34221;-76
2022/03/13 05:02:45;;;;;;;10.60;6.82;;;6.60;37.60;;;;;;4967422;28;35641;-76
2022/03/13 05:05:11;;;;;;;10.52;6.65;;;6.50;37.60;;;;;;4951873;28;34099;-76
2022/03/13 05:07:42;;;;;;;12.38;6.95;;;6.50;37.70;;;;;;4968844;28;34073;-75
2022/03/13 05:10:11;;;;;;;10.70;6.88;;;6.50;37.90;;;;;;4968559;28;34138;-75
2022/03/13 05:12:36;;;;;;;8.93;6.38;;;6.50;38.00;;;;;;4951540;28;36907;-75
2022/03/13 05:15:03;;;;;;;10.35;6.85;;;6.50;38.00;;;;;;4984613;28;34313;-76
2022/03/13 05:17:29;;;;;;;9.57;6.75;;;6.50;38.00;;;;;;4968074;28;34218;-75
2022/03/13 05:19:55;;;;;;;13.23;7.50;;;6.50;38.10;;;;;;4968180;28;34394;-76
2022/03/13 05:22:22;;;;;;;12.02;7.15;;;6.50;38.20;;;;;;4951682;28;35711;-76
2022/03/13 05:24:47;;;;;;;9.38;6.68;;;6.50;38.20;;;;;;4985297;28;34454;-76
2022/03/13 05:27:13;;;;;;;11.35;7.07;;;6.50;38.20;;;;;;4967853;28;34541;-76
2022/03/13 05:29:39;;;;;;;10.55;6.97;;;6.50;38.10;;;;;;4951886;28;34548;-76
2022/03/13 05:32:06;;;;;;;10.40;7.35;;;6.50;38.20;;;;;;4967514;28;35571;-76
2022/03/13 05:34:32;;;;;;;10.48;7.38;;;6.50;38.30;;;;;;4967627;28;34382;-76
2022/03/13 05:36:58;;;;;;;12.00;7.75;;;6.50;38.40;;;;;;4967584;28;34227;-76
2022/03/13 05:39:23;;;;;;;11.20;7.65;;;6.50;38.40;;;;;;4951530;28;34325;-76
2022/03/13 05:41:50;;;;;;;11.55;7.18;;;6.60;38.40;;;;;;4967929;28;34317;-76
2022/03/13 05:44:16;;;;;;;12.80;7.82;;;6.60;38.50;;;;;;4967685;28;34248;-76
2022/03/13 05:46:42;;;;;;;10.52;7.43;;;6.60;38.60;;;;;;4967406;28;33696;-76
2022/03/13 05:49:08;;;;;;;14.18;8.27;;;6.60;38.60;;;;;;4951837;28;34181;-76
2022/03/13 05:51:37;;;;;;;10.85;7.38;;;6.60;38.60;;;;;;4967120;28;35984;-76
2022/03/13 05:54:05;;;;;;;11.20;7.72;;;6.60;38.60;;;;;;4967390;28;34145;-76
2022/03/13 05:56:31;;;;;;;11.35;7.38;;;6.60;38.90;;;;;;4967488;28;34276;-76
2022/03/13 05:58:57;;;;;;;11.88;7.40;;;6.60;38.90;;;;;;4967191;28;34068;-76
2022/03/13 06:01:24;;;;;;;12.27;8.18;;;6.60;39.00;;;;;;4985007;28;34987;-76
2022/03/13 06:03:50;;;;;;;11.48;7.43;;;6.60;39.00;;;;;;4984547;28;34321;-76
2022/03/13 06:06:16;;;;;;;13.23;7.60;;;6.60;39.00;;;;;;4984330;28;34355;-76
2022/03/13 06:08:42;;;;;;;10.68;7.32;;;6.50;39.00;;;;;;4967057;28;34346;-76
2022/03/13 06:11:08;;;;;;;12.15;7.47;;;6.50;39.10;;;;;;4984318;28;34790;-76
2022/03/13 06:13:35;;;;;;;12.18;7.57;;;6.50;39.10;;;;;;4984890;28;34127;-76
2022/03/13 06:16:01;;;;;;;10.80;7.32;;;6.50;39.20;;;;;;4984635;28;34317;-76
2022/03/13 06:18:27;;;;;;;11.32;7.25;;;6.40;39.00;;;;;;4985044;28;34099;-75
2022/03/13 06:20:54;;;;;;;12.07;7.97;;;6.40;39.00;;;;;;4967067;28;36432;-76
2022/03/13 06:23:20;;;;;;;10.45;7.25;;;6.40;39.10;;;;;;4984571;28;34198;-76
2022/03/13 06:25:46;;;;;;;10.85;7.10;;;6.30;39.70;;;;;;4967136;28;34176;-76
2022/03/13 06:28:13;;;;;;;11.95;7.88;;;6.30;39.10;;;;;;4984073;28;34548;-76
2022/03/13 06:30:39;;;;;;;14.60;8.25;;;6.30;39.20;;;;;;4984099;28;35201;-76
2022/03/13 06:33:05;;;;;;;12.18;7.43;;;6.40;39.40;;;;;;4967620;28;34311;-76
2022/03/13 06:35:32;;;;;;;11.80;7.72;;;6.30;39.50;;;;;;4967393;28;34211;-76
2022/03/13 06:37:58;;;;;;;11.70;7.95;;;6.40;39.70;;;;;;4951125;28;34088;-76
2022/03/13 06:40:25;;;;;;;12.32;8.15;;;6.50;39.70;;;;;;4984596;28;35242;-76
2022/03/13 06:42:53;;;;;;;14.43;8.45;;;6.50;39.90;;;;;;4951043;28;34112;-76
2022/03/13 06:45:20;;;;;;;11.68;7.65;;;6.50;40.00;;;;;;4950704;28;34132;-76
2022/03/13 06:47:49;;;;;;;11.77;8.25;;;6.60;39.80;;;;;;4968160;28;34100;-76
2022/03/13 06:50:17;;;;;;;11.25;7.28;;;6.60;39.60;;;;;;4950209;28;35630;-76
2022/03/13 06:52:45;;;;;;;11.68;8.38;;;6.60;39.50;;;;;;4950526;28;34133;-76
2022/03/13 06:55:13;;;;;;;12.10;7.95;;;6.70;39.60;;;;;;4966897;28;33734;-76
2022/03/13 06:57:41;;;;;;;11.82;7.68;;;6.70;39.90;;;;;;4966967;28;34491;-76
2022/03/13 07:00:08;;;;;;;13.60;8.07;;;6.80;39.90;;;;;;4984302;28;34169;-76
2022/03/13 07:02:34;;;;;;;11.77;7.93;;;6.80;39.80;;;;;;4967327;28;34366;-76
2022/03/13 07:05:00;;;;;;;12.90;8.23;;;6.90;39.70;;;;;;4950007;28;34509;-76
2022/03/13 07:07:26;;;;;;;12.15;8.23;;;6.90;39.80;;;;;;4967554;28;34424;-76
2022/03/13 07:10:10;;;;;;;11.82;8.35;;;7.00;39.80;;;;;;4966186;28;35662;-76
2022/03/13 07:12:36;;;;;;;13.93;8.15;;;7.00;39.70;;;;;;4950979;28;34192;-76
2022/03/13 07:15:03;;;;;;;12.32;7.95;;;7.10;39.70;;;;;;4966386;28;34114;-76
2022/03/13 07:17:29;;;;;;;16.58;8.77;;;7.20;39.60;;;;;;4967544;28;34132;-76
2022/03/13 07:19:55;;;;;;;14.90;8.48;;;7.30;39.70;;;;;;4950032;28;36048;-77
2022/03/13 07:22:21;;;;;;;13.35;9.23;;;7.40;39.70;;;;;;4950383;28;34190;-76
2022/03/13 07:24:49;;;;;;;11.75;8.73;;;7.50;39.50;;;;;;4950338;28;34390;-76
2022/03/13 07:27:15;;;;;;;15.32;9.25;;;7.60;39.70;;;;;;4950430;28;34294;-76
2022/03/13 07:29:41;;;;;;;11.13;8.00;;;7.70;39.20;;;;;;4965698;28;36317;-76
2022/03/13 07:32:08;;;;;;;13.60;9.43;;;7.80;39.00;;;;;;4950511;28;34234;-76
2022/03/13 07:34:37;;;;;;;13.57;8.48;;;8.10;38.80;;;;;;4966271;28;34222;-77
2022/03/13 07:37:04;;;;;;;13.85;8.82;;;8.30;38.40;;;;;;4982840;28;34241;-76
2022/03/13 07:39:30;;;;;;;13.75;8.98;;;8.50;38.00;;;;;;4950409;28;35853;-76
2022/03/13 07:41:56;;;;;;;14.30;8.80;;;8.70;37.70;;;;;;4966145;28;34081;-76
2022/03/13 07:44:22;;;;;;;13.95;8.68;;;9.00;37.00;;;;;;4966608;28;34172;-76
2022/03/13 07:46:48;;;;;;;11.95;7.88;;;9.20;36.80;;;;;;4966312;28;34384;-76
2022/03/13 07:49:14;;;;;;;10.95;8.32;;;9.40;36.40;;;;;;4966486;28;35746;-76
2022/03/13 07:51:40;;;;;;;11.45;8.13;;;9.70;35.60;;;;;;4949530;28;34248;-76
2022/03/13 07:54:06;;;;;;;11.50;8.00;;;9.90;34.80;;;;;;4966078;28;34517;-76
2022/03/13 07:56:32;;;;;;;15.55;8.23;;;10.20;34.20;;;;;;4965766;28;34194;-76
2022/03/13 07:58:58;;;;;;;14.82;8.15;;;10.60;33.00;;;;;;4982726;28;34361;-76
2022/03/13 08:01:24;;;;;;;11.88;7.80;;;10.90;32.70;;;;;;4967260;28;34295;-76
2022/03/13 08:03:51;;;;;;;14.25;7.88;;;11.10;32.30;;;;;;4969171;28;34138;-77
2022/03/13 08:06:17;;;;;;;14.80;8.00;;;11.30;31.60;;;;;;4969248;28;34008;-77
2022/03/13 08:08:43;;;;;;;13.10;7.63;;;11.50;31.30;;;;;;4985957;28;35234;-77
2022/03/13 08:11:09;;;;;;;11.43;7.75;;;11.70;31.10;;;;;;4968824;28;34219;-77
2022/03/13 08:13:35;;;;;;;9.52;7.10;;;11.80;30.70;;;;;;4969544;28;34331;-77
2022/03/13 08:16:01;;;;;;;11.20;7.72;;;12.00;30.50;;;;;;4969058;28;34284;-76
2022/03/13 08:18:29;;;;;;;12.05;7.70;;;12.20;30.10;;;;;;4968362;28;36257;-77
2022/03/13 08:20:56;;;;;;;12.27;7.82;;;12.30;29.80;;;;;;4968614;28;34284;-76
2022/03/13 08:23:22;;;;;;;11.80;7.47;;;12.50;29.40;;;;;;4968796;28;34176;-76
2022/03/13 08:25:48;;;;;;;11.32;8.15;;;12.60;28.70;;;;;;4968675;28;34128;-77
2022/03/13 08:28:14;;;;;;;15.13;8.32;;;12.80;28.70;;;;;;4986131;28;34109;-76
2022/03/13 08:30:40;;;;;;;14.23;8.60;;;12.90;28.50;;;;;;4952543;28;34290;-76
2022/03/13 08:33:06;;;;;;;10.70;7.72;;;13.00;28.20;;;;;;4968574;28;34291;-76
2022/03/13 08:35:32;;;;;;;12.75;8.07;;;13.10;28.10;;;;;;4953514;28;34370;-76
2022/03/13 08:37:58;;;;;;;13.73;7.75;;;13.30;27.70;;;;;;4952438;28;36444;-76
2022/03/13 08:40:25;;;;;;;13.18;8.05;;;13.30;27.40;;;;;;4968776;28;34108;-76
2022/03/13 08:42:53;;;;;;;12.43;7.78;;;13.50;27.10;;;;;;4952719;28;34327;-76
2022/03/13 08:45:19;;;;;;;13.57;8.05;;;13.70;26.80;;;;;;4968462;28;34161;-77
2022/03/13 08:47:46;;;;;;;13.10;7.47;;;13.80;26.30;;;;;;4968672;28;34955;-76
2022/03/13 08:50:13;;;;;;;11.52;8.10;;;14.00;26.20;;;;;;4968919;28;34446;-77
2022/03/13 08:52:39;;;;;;;13.57;8.55;;;14.10;24.50;;;;;;4968730;28;34220;-76
2022/03/13 08:55:08;;;;;;;11.55;7.45;;;14.30;25.70;;;;;;4985681;28;34122;-76
2022/03/13 08:57:35;;;;;;;13.00;7.93;;;14.40;25.10;;;;;;4968505;28;34165;-77
2022/03/13 09:00:01;;;;;;;13.13;7.95;;;14.60;24.80;;;;;;4985713;28;34140;-76
2022/03/13 09:02:27;;;;;;;13.05;8.57;;;14.80;24.60;;;;;;4951866;28;34406;-76
2022/03/13 09:04:53;;;;;;;14.20;7.85;;;14.80;24.00;;;;;;4984390;28;34459;-76
2022/03/13 09:07:19;;;;;;;11.55;8.10;;;14.90;23.70;;;;;;4951867;28;35759;-76
2022/03/13 09:09:46;;;;;;;11.38;7.47;;;15.00;23.80;;;;;;4985562;28;34119;-76
2022/03/13 09:12:12;;;;;;;11.95;8.18;;;15.10;23.60;;;;;;4952089;28;34323;-76
2022/03/13 09:14:39;;;;;;;10.63;8.10;;;15.20;23.30;;;;;;4968401;28;34635;-76
2022/03/13 09:17:05;;;;;;;12.27;8.27;;;15.40;22.90;;;;;;4952073;28;36734;-76
2022/03/13 09:19:31;;;;;;;11.10;8.13;;;15.40;22.60;;;;;;4990211;28;34465;-77
2022/03/13 09:21:57;;;;;;;12.30;8.30;;;15.60;22.60;;;;;;4987293;28;34182;-76
2022/03/13 09:24:23;;;;;;;13.60;8.07;;;15.80;22.50;;;;;;4987235;28;34476;-76
2022/03/13 09:26:49;;;;;;;12.27;7.28;;;16.00;22.00;;;;;;5004925;28;35195;-77
2022/03/13 09:29:15;;;;;;;11.10;7.78;;;16.20;21.90;;;;;;4987597;28;34244;-76
2022/03/13 09:31:41;;;;;;;12.07;8.02;;;16.40;21.70;;;;;;4987110;28;34270;-76
2022/03/13 09:34:08;;;;;;;13.48;8.73;;;16.40;21.20;;;;;;4970917;28;34235;-76
2022/03/13 09:36:37;;;;;;;11.40;8.13;;;16.50;21.00;;;;;;5004190;28;35285;-76
2022/03/13 09:39:05;;;;;;;14.35;8.10;;;16.50;20.60;;;;;;5004088;28;34257;-76
2022/03/13 09:41:31;;;;;;;11.93;8.38;;;16.80;20.40;;;;;;4987275;28;34270;-76
2022/03/13 09:43:57;;;;;;;10.43;7.68;;;16.90;20.40;;;;;;5004523;28;34290;-76
2022/03/13 09:46:23;;;;;;;12.57;7.18;;;17.00;20.00;;;;;;4986918;28;36324;-76
2022/03/13 09:48:52;;;;;;;10.45;6.80;;;17.00;20.00;;;;;;5003992;28;34253;-76
2022/03/13 09:51:18;;;;;;;10.35;6.47;;;17.10;19.10;;;;;;4971302;28;33743;-76
2022/03/13 09:53:46;;;;;;;9.32;6.57;;;17.30;19.90;;;;;;4987329;28;34267;-76
2022/03/13 09:56:12;;;;;;;10.00;7.28;;;17.50;19.70;;;;;;4986733;28;36765;-76
2022/03/13 09:58:39;;;;;;;9.82;7.30;;;17.50;19.40;;;;;;4986926;28;34311;-75
2022/03/13 10:01:07;;;;;;;14.23;7.22;;;17.60;19.40;;;;;;4987001;28;34202;-75
2022/03/13 10:03:33;;;;;;;9.48;6.32;;;17.80;18.70;;;;;;4986890;28;34500;-75
2022/03/13 10:06:00;;;;;;;9.57;6.82;;;17.70;19.20;;;;;;4986747;28;35515;-76
2022/03/13 10:08:29;;;;;;;10.48;6.50;;;17.80;19.00;;;;;;4986861;28;34140;-76
2022/03/13 10:10:55;;;;;;;9.77;6.53;;;17.90;17.00;;;;;;4971021;28;34163;-75
2022/03/13 10:13:38;;;;;;;10.60;6.30;;;18.00;18.50;;;;;;5004299;28;34047;-76
2022/03/13 10:16:06;;;;;;;9.25;5.65;;;18.00;14.20;;;;;;4987112;28;36046;-76
2022/03/13 10:18:33;;;;;;;8.48;6.13;;;18.10;18.10;;;;;;5003824;28;34304;-76
2022/03/13 10:21:08;;;;;;;10.45;6.47;;;18.20;18.00;;;;;;4986121;28;34515;-75
2022/03/13 10:23:34;;;;;;;7.68;5.72;;;18.20;15.30;;;;;;4986433;28;34372;-75
2022/03/13 10:26:00;;;;;;;8.10;6.32;;;18.30;17.70;;;;;;4986171;28;35920;-76
2022/03/13 10:28:30;;;;;;;10.27;5.72;;;18.40;17.70;;;;;;5003805;28;34120;-78
2022/03/13 10:31:11;;;;;;;10.15;6.05;;;18.60;16.90;;;;;;4970543;28;34100;-75
2022/03/13 10:33:55;;;;;;;9.75;5.97;;;18.80;13.20;;;;;;4986076;28;34294;-76
2022/03/13 10:36:31;;;;;;;7.55;5.93;;;18.70;12.20;;;;;;4986178;28;35667;-76
2022/03/13 10:38:59;;;;;;;10.70;5.88;;;18.60;14.90;;;;;;4986520;28;34225;-76
2022/03/13 10:41:44;;;;;;;9.13;6.35;;;18.80;16.90;;;;;;5004036;28;34307;-77
2022/03/13 10:44:15;;;;;;;8.77;5.70;;;19.00;12.90;;;;;;4971723;28;34170;-75
2022/03/13 10:46:42;;;;;;;7.60;5.22;;;19.10;14.20;;;;;;5002851;28;34459;-75
2022/03/13 10:49:09;;;;;;;8.55;5.80;;;19.10;16.40;;;;;;5003203;28;34349;-75
2022/03/13 10:51:45;;;;;;;8.25;5.57;;;19.20;16.10;;;;;;5003275;28;34410;-75
2022/03/13 10:54:28;;;;;;;8.32;5.43;;;19.20;14.90;;;;;;5004120;28;34188;-76
2022/03/13 10:57:11;;;;;;;8.70;5.10;;;19.20;12.00;;;;;;4985449;28;35522;-76
2022/03/13 10:59:40;;;;;;;7.15;4.75;;;19.30;11.40;;;;;;5003645;28;34158;-77
2022/03/13 11:02:29;;;;;;;7.00;4.82;;;19.10;14.30;;;;;;4985600;28;34222;-76
2022/03/13 11:04:57;;;;;;;6.07;4.75;;;19.20;11.70;;;;;;4961731;28;34250;-75
2022/03/13 11:07:26;;;;;;;6.22;4.43;;;19.20;15.40;;;;;;4961586;28;35390;-75
2022/03/13 11:09:54;;;;;;;7.57;5.13;;;19.30;15.30;;;;;;4978424;28;34566;-76
2022/03/13 11:12:20;;;;;;;7.70;5.03;;;19.60;15.20;;;;;;4947130;28;34227;-76
2022/03/13 11:14:49;;;;;;;6.30;4.55;;;19.60;15.00;;;;;;4978625;28;34224;-75
2022/03/13 11:17:18;;;;;;;6.43;4.45;;;19.80;14.60;;;;;;4931696;28;36472;-76
2022/03/13 11:19:49;;;;;;;5.55;4.45;;;19.80;13.40;;;;;;4980097;28;34217;-77
2022/03/13 11:22:18;;;;;;;6.47;4.65;;;19.90;13.10;;;;;;4947507;28;34183;-76
2022/03/13 11:24:44;;;;;;;5.82;4.15;;;20.00;13.10;;;;;;4963347;28;34453;-76
2022/03/13 11:27:12;;;;;;;5.68;4.63;;;20.10;14.10;;;;;;4978569;28;35706;-75
2022/03/13 11:29:52;;;;;;;5.20;3.92;;;20.20;13.70;;;;;;4962092;28;34327;-75
2022/03/13 11:32:48;;;;;;;5.03;3.80;;;20.10;10.80;;;;;;4962777;28;34355;-75
2022/03/13 11:35:25;;;;;;;6.60;4.07;;;20.10;9.70;;;;;;4973862;28;34361;-77
2022/03/13 11:38:14;;;;;;;5.88;3.80;;;19.70;9.10;;;;;;4991471;28;35826;-75
2022/03/13 11:40:40;;;;;;;6.57;4.35;;;19.70;12.70;;;;;;4978218;28;34354;-75
2022/03/13 11:43:13;;;;;;;5.15;4.07;;;19.90;13.60;;;;;;5009964;28;34202;-76
2022/03/13 11:45:42;;;;;;;6.93;4.10;;;20.10;11.10;;;;;;4992585;28;34302;-77
2022/03/13 11:48:37;;;;;;;4.80;3.92;;;20.10;11.70;;;;;;4992946;28;36711;-75
2022/03/13 11:51:04;;;;;;;6.93;4.05;;;20.40;8.00;;;;;;4979522;28;34101;-75
2022/03/13 11:53:44;;;;;;;6.50;4.15;;;20.40;12.90;;;;;;4975938;28;34105;-75
2022/03/13 11:56:20;;;;;;;7.38;4.10;;;20.30;8.50;;;;;;4975885;28;34180;-74
2022/03/13 11:58:49;;;;;;;11.25;3.97;;;20.30;12.50;;;;;;4975243;28;36883;-75
2022/03/13 12:01:20;;;;;;;6.90;3.22;;;20.50;12.00;;;;;;4992528;28;34277;-77
2022/03/13 12:04:21;;;;;;;4.10;3.50;;;20.40;10.70;;;;;;4992581;28;34247;-75
2022/03/13 12:06:51;;;;;;;4.40;3.05;;;20.20;7.10;;;;;;4994577;28;34462;-76
2022/03/13 12:09:20;;;;;;;8.65;3.60;;;20.10;11.50;;;;;;4990935;28;36383;-75
2022/03/13 12:11:50;;;;;;;3.55;2.55;;;20.00;11.60;;;;;;4991625;28;34265;-75
2022/03/13 12:14:19;;;;;;;2.25;2.05;;;19.90;9.20;;;;;;4975170;28;34268;-74
2022/03/13 12:17:03;;;;;;;4.85;2.85;;;19.80;11.50;;;;;;4991636;28;34264;-76
2022/03/13 12:19:39;;;;;;;4.43;3.22;;;19.60;11.70;;;;;;5008055;28;34474;-75
2022/03/13 12:22:06;;;;;;;4.65;2.97;;;19.50;10.50;;;;;;4991392;28;34231;-75
2022/03/13 12:24:33;;;;;;;3.63;2.83;;;19.50;12.30;;;;;;4990926;28;34356;-75
2022/03/13 12:27:02;;;;;;;4.90;3.40;;;19.40;11.70;;;;;;4991261;28;34130;-74
2022/03/13 12:29:32;;;;;;;4.85;3.28;;;19.30;11.30;;;;;;4974605;28;35680;-76
2022/03/13 12:32:00;;;;;;;5.30;3.35;;;19.10;11.80;;;;;;5008543;28;34211;-74
2022/03/13 12:34:29;;;;;;;5.22;3.65;;;19.10;12.10;;;;;;4974869;28;34069;-74
2022/03/13 12:36:58;;;;;;;5.85;4.00;;;19.00;12.10;;;;;;4974027;28;34404;-75
2022/03/13 12:39:24;;;;;;;4.05;2.88;;;18.90;12.50;;;;;;4990588;28;36451;-74
2022/03/13 12:41:59;;;;;;;3.67;2.92;;;18.90;12.50;;;;;;4974935;28;34195;-75
2022/03/13 12:44:27;;;;;;;6.18;3.72;;;19.00;10.20;;;;;;4991087;28;34144;-75
2022/03/13 12:46:54;;;;;;;5.20;3.25;;;19.10;12.50;;;;;;4990171;28;34226;-76
2022/03/13 12:49:27;;;;;;;4.25;3.13;;;19.10;11.80;;;;;;4971691;28;35777;-74
2022/03/13 12:51:53;;;;;;;5.50;3.85;;;18.90;10.50;;;;;;4971624;28;34444;-75
2022/03/13 12:54:28;;;;;;;7.05;4.00;;;18.70;12.20;;;;;;4986909;28;34370;-74